sensor_id;sensor_type;location;lat;lon;timestamp;P1;durP1;ratioP1;P2;durP2;ratioP2
66521;SDS011;53349;53.538;8.584;2024-03-29T00:00:42;5.82;;;1.20;;
66521;SDS011;53349;53.538;8.584;2024-03-29T00:03:08;2.95;;;1.17;;
66521;SDS011;53349;53.538;8.584;2024-03-29T00:05:34;5.63;;;1.37;;
66521;SDS011;53349;53.538;8.584;2024-03-29T00:07:59;3.05;;;1.00;;
66521;SDS011;53349;53.538;8.584;2024-03-29T00:10:25;3.90;;;1.37;;
66521;SDS011;53349;53.538;8.584;2024-03-29T00:12:50;3.30;;;1.20;;
66521;SDS011;53349;53.538;8.584;2024-03-29T00:15:16;4.17;;;0.97;;
66521;SDS011;53349;53.538;8.584;2024-03-29T00:17:41;3.23;;;1.10;;
66521;SDS011;53349;53.538;8.584;2024-03-29T00:20:06;5.32;;;1.10;;
66521;SDS011;53349;53.538;8.584;2024-03-29T00:22:32;3.25;;;1.10;;
66521;SDS011;53349;53.538;8.584;2024-03-29T00:24:57;4.70;;;1.30;;
66521;SDS011;53349;53.538;8.584;2024-03-29T00:27:23;4.80;;;1.00;;
66521;SDS011;53349;53.538;8.584;2024-03-29T00:29:48;3.33;;;1.30;;
66521;SDS011;53349;53.538;8.584;2024-03-29T00:32:13;4.33;;;1.23;;
66521;SDS011;53349;53.538;8.584;2024-03-29T00:34:39;4.10;;;1.10;;
66521;SDS011;53349;53.538;8.584;2024-03-29T00:37:04;6.57;;;1.40;;
66521;SDS011;53349;53.538;8.584;2024-03-29T00:39:30;5.15;;;1.20;;
66521;SDS011;53349;53.538;8.584;2024-03-29T00:41:55;5.37;;;1.20;;
66521;SDS011;53349;53.538;8.584;2024-03-29T00:44:20;4.57;;;1.20;;
66521;SDS011;53349;53.538;8.584;2024-03-29T00:46:46;5.70;;;1.00;;
66521;SDS011;53349;53.538;8.584;2024-03-29T00:49:11;4.23;;;1.00;;
66521;SDS011;53349;53.538;8.584;2024-03-29T00:51:36;2.53;;;0.93;;
66521;SDS011;53349;53.538;8.584;2024-03-29T00:54:02;4.15;;;0.95;;
66521;SDS011;53349;53.538;8.584;2024-03-29T00:56:27;3.30;;;1.02;;
66521;SDS011;53349;53.538;8.584;2024-03-29T00:58:52;2.33;;;0.90;;
66521;SDS011;53349;53.538;8.584;2024-03-29T01:01:18;3.50;;;1.00;;
66521;SDS011;53349;53.538;8.584;2024-03-29T01:03:43;4.27;;;1.03;;
66521;SDS011;53349;53.538;8.584;2024-03-29T01:06:08;3.67;;;0.90;;
66521;SDS011;53349;53.538;8.584;2024-03-29T01:08:34;4.10;;;1.10;;
66521;SDS011;53349;53.538;8.584;2024-03-29T01:10:59;3.67;;;0.90;;
66521;SDS011;53349;53.538;8.584;2024-03-29T01:13:24;3.03;;;0.90;;
66521;SDS011;53349;53.538;8.584;2024-03-29T01:15:50;10.50;;;1.30;;
66521;SDS011;53349;53.538;8.584;2024-03-29T01:18:15;5.38;;;1.13;;
66521;SDS011;53349;53.538;8.584;2024-03-29T01:20:40;3.17;;;1.00;;
66521;SDS011;53349;53.538;8.584;2024-03-29T01:23:06;6.43;;;1.30;;
66521;SDS011;53349;53.538;8.584;2024-03-29T01:25:31;3.67;;;1.07;;
66521;SDS011;53349;53.538;8.584;2024-03-29T01:27:58;4.13;;;1.38;;
66521;SDS011;53349;53.538;8.584;2024-03-29T01:30:23;4.30;;;0.80;;
66521;SDS011;53349;53.538;8.584;2024-03-29T01:32:49;4.07;;;0.90;;
66521;SDS011;53349;53.538;8.584;2024-03-29T01:35:14;5.73;;;1.13;;
66521;SDS011;53349;53.538;8.584;2024-03-29T01:37:40;5.03;;;1.10;;
66521;SDS011;53349;53.538;8.584;2024-03-29T01:40:05;5.60;;;1.13;;
66521;SDS011;53349;53.538;8.584;2024-03-29T01:42:31;2.60;;;0.80;;
66521;SDS011;53349;53.538;8.584;2024-03-29T01:44:56;3.20;;;0.80;;
66521;SDS011;53349;53.538;8.584;2024-03-29T01:47:21;2.30;;;0.80;;
66521;SDS011;53349;53.538;8.584;2024-03-29T01:49:47;5.53;;;1.05;;
66521;SDS011;53349;53.538;8.584;2024-03-29T01:52:13;4.40;;;0.90;;
66521;SDS011;53349;53.538;8.584;2024-03-29T01:54:42;4.35;;;0.80;;
66521;SDS011;53349;53.538;8.584;2024-03-29T01:57:09;2.45;;;0.80;;
66521;SDS011;53349;53.538;8.584;2024-03-29T01:59:34;3.57;;;0.97;;
66521;SDS011;53349;53.538;8.584;2024-03-29T02:02:00;3.05;;;0.80;;
66521;SDS011;53349;53.538;8.584;2024-03-29T02:04:26;4.57;;;0.80;;
66521;SDS011;53349;53.538;8.584;2024-03-29T02:06:52;2.90;;;0.70;;
66521;SDS011;53349;53.538;8.584;2024-03-29T02:09:17;2.90;;;0.90;;
66521;SDS011;53349;53.538;8.584;2024-03-29T02:11:43;4.23;;;0.70;;
66521;SDS011;53349;53.538;8.584;2024-03-29T02:14:08;5.68;;;0.90;;
66521;SDS011;53349;53.538;8.584;2024-03-29T02:16:33;5.63;;;0.90;;
66521;SDS011;53349;53.538;8.584;2024-03-29T02:18:59;3.17;;;1.00;;
66521;SDS011;53349;53.538;8.584;2024-03-29T02:21:24;7.17;;;0.87;;
66521;SDS011;53349;53.538;8.584;2024-03-29T02:24:22;6.50;;;0.70;;
66521;SDS011;53349;53.538;8.584;2024-03-29T02:26:41;4.95;;;0.93;;
66521;SDS011;53349;53.538;8.584;2024-03-29T02:29:07;7.13;;;0.80;;
66521;SDS011;53349;53.538;8.584;2024-03-29T02:31:33;5.22;;;1.00;;
66521;SDS011;53349;53.538;8.584;2024-03-29T02:33:58;5.40;;;0.80;;
66521;SDS011;53349;53.538;8.584;2024-03-29T02:36:23;2.53;;;0.60;;
66521;SDS011;53349;53.538;8.584;2024-03-29T02:38:49;3.95;;;0.82;;
66521;SDS011;53349;53.538;8.584;2024-03-29T02:41:14;3.80;;;0.80;;
66521;SDS011;53349;53.538;8.584;2024-03-29T02:43:39;3.53;;;0.73;;
66521;SDS011;53349;53.538;8.584;2024-03-29T02:46:05;2.37;;;0.77;;
66521;SDS011;53349;53.538;8.584;2024-03-29T02:48:30;6.17;;;1.00;;
66521;SDS011;53349;53.538;8.584;2024-03-29T02:50:55;4.10;;;0.67;;
66521;SDS011;53349;53.538;8.584;2024-03-29T02:53:21;5.77;;;1.20;;
66521;SDS011;53349;53.538;8.584;2024-03-29T02:55:46;7.13;;;0.90;;
66521;SDS011;53349;53.538;8.584;2024-03-29T02:58:11;2.15;;;0.60;;
66521;SDS011;53349;53.538;8.584;2024-03-29T03:00:37;5.30;;;0.80;;
66521;SDS011;53349;53.538;8.584;2024-03-29T03:03:02;3.57;;;0.70;;
66521;SDS011;53349;53.538;8.584;2024-03-29T03:05:29;4.13;;;0.83;;
66521;SDS011;53349;53.538;8.584;2024-03-29T03:07:54;4.18;;;0.70;;
66521;SDS011;53349;53.538;8.584;2024-03-29T03:10:20;7.90;;;0.90;;
66521;SDS011;53349;53.538;8.584;2024-03-29T03:12:45;6.17;;;0.90;;
66521;SDS011;53349;53.538;8.584;2024-03-29T03:15:11;4.30;;;0.70;;
66521;SDS011;53349;53.538;8.584;2024-03-29T03:17:36;4.00;;;0.60;;
66521;SDS011;53349;53.538;8.584;2024-03-29T03:20:01;3.60;;;0.60;;
66521;SDS011;53349;53.538;8.584;2024-03-29T03:22:27;3.63;;;0.60;;
66521;SDS011;53349;53.538;8.584;2024-03-29T03:24:52;2.70;;;0.63;;
66521;SDS011;53349;53.538;8.584;2024-03-29T03:27:17;6.57;;;0.93;;
66521;SDS011;53349;53.538;8.584;2024-03-29T03:29:43;4.87;;;0.70;;
66521;SDS011;53349;53.538;8.584;2024-03-29T03:32:08;2.63;;;0.60;;
66521;SDS011;53349;53.538;8.584;2024-03-29T03:34:33;3.90;;;0.60;;
66521;SDS011;53349;53.538;8.584;2024-03-29T03:36:59;4.80;;;0.70;;
66521;SDS011;53349;53.538;8.584;2024-03-29T03:39:24;2.53;;;0.57;;
66521;SDS011;53349;53.538;8.584;2024-03-29T03:41:50;3.57;;;0.67;;
66521;SDS011;53349;53.538;8.584;2024-03-29T03:44:15;3.83;;;0.80;;
66521;SDS011;53349;53.538;8.584;2024-03-29T03:46:41;3.07;;;0.70;;
66521;SDS011;53349;53.538;8.584;2024-03-29T03:49:06;3.30;;;0.60;;
66521;SDS011;53349;53.538;8.584;2024-03-29T03:51:32;3.63;;;0.60;;
66521;SDS011;53349;53.538;8.584;2024-03-29T03:53:57;3.00;;;0.60;;
66521;SDS011;53349;53.538;8.584;2024-03-29T03:56:22;2.67;;;0.80;;
66521;SDS011;53349;53.538;8.584;2024-03-29T03:58:48;3.03;;;0.70;;
66521;SDS011;53349;53.538;8.584;2024-03-29T04:01:13;3.00;;;0.60;;
66521;SDS011;53349;53.538;8.584;2024-03-29T04:03:38;2.87;;;0.53;;
66521;SDS011;53349;53.538;8.584;2024-03-29T04:06:04;3.47;;;0.70;;
66521;SDS011;53349;53.538;8.584;2024-03-29T04:08:29;3.00;;;0.53;;
66521;SDS011;53349;53.538;8.584;2024-03-29T04:10:55;4.50;;;0.65;;
66521;SDS011;53349;53.538;8.584;2024-03-29T04:13:20;5.37;;;0.80;;
66521;SDS011;53349;53.538;8.584;2024-03-29T04:15:45;4.07;;;0.57;;
66521;SDS011;53349;53.538;8.584;2024-03-29T04:18:11;4.10;;;0.70;;
66521;SDS011;53349;53.538;8.584;2024-03-29T04:20:36;2.90;;;0.57;;
66521;SDS011;53349;53.538;8.584;2024-03-29T04:23:05;3.63;;;0.88;;
66521;SDS011;53349;53.538;8.584;2024-03-29T04:25:31;2.90;;;0.70;;
66521;SDS011;53349;53.538;8.584;2024-03-29T04:27:56;2.47;;;0.50;;
66521;SDS011;53349;53.538;8.584;2024-03-29T04:30:21;5.97;;;0.70;;
66521;SDS011;53349;53.538;8.584;2024-03-29T04:32:47;3.30;;;0.70;;
66521;SDS011;53349;53.538;8.584;2024-03-29T04:35:12;3.53;;;0.50;;
66521;SDS011;53349;53.538;8.584;2024-03-29T04:37:37;4.90;;;0.90;;
66521;SDS011;53349;53.538;8.584;2024-03-29T04:40:03;2.53;;;0.60;;
66521;SDS011;53349;53.538;8.584;2024-03-29T04:42:29;4.10;;;0.50;;
66521;SDS011;53349;53.538;8.584;2024-03-29T04:44:54;5.30;;;1.60;;
66521;SDS011;53349;53.538;8.584;2024-03-29T04:47:19;3.23;;;0.70;;
66521;SDS011;53349;53.538;8.584;2024-03-29T04:49:45;1.87;;;0.50;;
66521;SDS011;53349;53.538;8.584;2024-03-29T04:52:10;3.23;;;0.60;;
66521;SDS011;53349;53.538;8.584;2024-03-29T04:54:35;4.70;;;0.60;;
66521;SDS011;53349;53.538;8.584;2024-03-29T04:57:01;3.58;;;0.70;;
66521;SDS011;53349;53.538;8.584;2024-03-29T04:59:28;3.90;;;0.60;;
66521;SDS011;53349;53.538;8.584;2024-03-29T05:01:54;4.13;;;0.68;;
66521;SDS011;53349;53.538;8.584;2024-03-29T05:04:20;4.68;;;0.73;;
66521;SDS011;53349;53.538;8.584;2024-03-29T05:06:46;4.70;;;0.70;;
66521;SDS011;53349;53.538;8.584;2024-03-29T05:09:16;4.25;;;0.77;;
66521;SDS011;53349;53.538;8.584;2024-03-29T05:11:43;3.70;;;0.40;;
66521;SDS011;53349;53.538;8.584;2024-03-29T05:14:08;4.60;;;0.67;;
66521;SDS011;53349;53.538;8.584;2024-03-29T05:16:33;4.83;;;0.60;;
66521;SDS011;53349;53.538;8.584;2024-03-29T05:18:59;3.00;;;0.53;;
66521;SDS011;53349;53.538;8.584;2024-03-29T05:21:24;2.77;;;0.50;;
66521;SDS011;53349;53.538;8.584;2024-03-29T05:23:50;2.87;;;0.50;;
66521;SDS011;53349;53.538;8.584;2024-03-29T05:26:16;2.78;;;0.60;;
66521;SDS011;53349;53.538;8.584;2024-03-29T05:28:42;3.17;;;0.70;;
66521;SDS011;53349;53.538;8.584;2024-03-29T05:31:13;4.28;;;0.63;;
66521;SDS011;53349;53.538;8.584;2024-03-29T05:33:42;4.45;;;0.98;;
66521;SDS011;53349;53.538;8.584;2024-03-29T05:36:08;3.70;;;0.70;;
66521;SDS011;53349;53.538;8.584;2024-03-29T05:38:33;3.23;;;0.60;;
66521;SDS011;53349;53.538;8.584;2024-03-29T05:40:59;2.42;;;0.57;;
66521;SDS011;53349;53.538;8.584;2024-03-29T05:43:24;2.63;;;0.57;;
66521;SDS011;53349;53.538;8.584;2024-03-29T05:45:52;5.00;;;1.60;;
66521;SDS011;53349;53.538;8.584;2024-03-29T05:48:17;4.38;;;0.80;;
66521;SDS011;53349;53.538;8.584;2024-03-29T05:50:43;2.17;;;0.50;;
66521;SDS011;53349;53.538;8.584;2024-03-29T05:53:08;2.93;;;0.50;;
66521;SDS011;53349;53.538;8.584;2024-03-29T05:55:33;3.07;;;0.80;;
66521;SDS011;53349;53.538;8.584;2024-03-29T05:57:59;3.30;;;0.45;;
66521;SDS011;53349;53.538;8.584;2024-03-29T06:00:24;3.63;;;0.52;;
66521;SDS011;53349;53.538;8.584;2024-03-29T06:02:50;3.93;;;0.30;;
66521;SDS011;53349;53.538;8.584;2024-03-29T06:05:15;3.70;;;0.50;;
66521;SDS011;53349;53.538;8.584;2024-03-29T06:07:40;4.17;;;0.70;;
66521;SDS011;53349;53.538;8.584;2024-03-29T06:10:06;2.23;;;0.43;;
66521;SDS011;53349;53.538;8.584;2024-03-29T06:12:31;4.70;;;0.70;;
66521;SDS011;53349;53.538;8.584;2024-03-29T06:14:57;4.15;;;0.60;;
66521;SDS011;53349;53.538;8.584;2024-03-29T06:17:22;2.77;;;0.70;;
66521;SDS011;53349;53.538;8.584;2024-03-29T06:19:48;3.17;;;0.60;;
66521;SDS011;53349;53.538;8.584;2024-03-29T06:22:17;1.95;;;0.50;;
66521;SDS011;53349;53.538;8.584;2024-03-29T06:24:43;3.35;;;0.65;;
66521;SDS011;53349;53.538;8.584;2024-03-29T06:27:08;4.33;;;0.60;;
66521;SDS011;53349;53.538;8.584;2024-03-29T06:29:34;4.93;;;0.80;;
66521;SDS011;53349;53.538;8.584;2024-03-29T06:31:59;3.10;;;0.47;;
66521;SDS011;53349;53.538;8.584;2024-03-29T06:34:25;2.17;;;0.60;;
66521;SDS011;53349;53.538;8.584;2024-03-29T06:36:50;3.93;;;0.57;;
66521;SDS011;53349;53.538;8.584;2024-03-29T06:39:15;2.47;;;0.43;;
66521;SDS011;53349;53.538;8.584;2024-03-29T06:41:41;2.33;;;0.57;;
66521;SDS011;53349;53.538;8.584;2024-03-29T06:44:06;5.00;;;0.60;;
66521;SDS011;53349;53.538;8.584;2024-03-29T06:46:31;5.43;;;0.60;;
66521;SDS011;53349;53.538;8.584;2024-03-29T06:48:57;3.58;;;0.60;;
66521;SDS011;53349;53.538;8.584;2024-03-29T06:51:22;3.27;;;0.50;;
66521;SDS011;53349;53.538;8.584;2024-03-29T06:53:47;3.10;;;0.50;;
66521;SDS011;53349;53.538;8.584;2024-03-29T06:56:13;5.00;;;0.70;;
66521;SDS011;53349;53.538;8.584;2024-03-29T06:58:38;6.70;;;0.70;;
66521;SDS011;53349;53.538;8.584;2024-03-29T07:01:03;4.17;;;0.50;;
66521;SDS011;53349;53.538;8.584;2024-03-29T07:03:34;5.18;;;0.60;;
66521;SDS011;53349;53.538;8.584;2024-03-29T07:06:04;5.35;;;0.82;;
66521;SDS011;53349;53.538;8.584;2024-03-29T07:08:34;4.15;;;0.57;;
66521;SDS011;53349;53.538;8.584;2024-03-29T07:11:02;4.47;;;0.57;;
66521;SDS011;53349;53.538;8.584;2024-03-29T07:13:28;3.67;;;0.70;;
66521;SDS011;53349;53.538;8.584;2024-03-29T07:15:55;4.72;;;0.50;;
66521;SDS011;53349;53.538;8.584;2024-03-29T07:18:20;2.63;;;0.50;;
66521;SDS011;53349;53.538;8.584;2024-03-29T07:20:45;3.00;;;0.50;;
66521;SDS011;53349;53.538;8.584;2024-03-29T07:23:11;9.83;;;0.93;;
66521;SDS011;53349;53.538;8.584;2024-03-29T07:25:37;2.33;;;0.43;;
66521;SDS011;53349;53.538;8.584;2024-03-29T07:28:02;4.20;;;0.70;;
66521;SDS011;53349;53.538;8.584;2024-03-29T07:30:28;7.95;;;0.50;;
66521;SDS011;53349;53.538;8.584;2024-03-29T07:32:53;2.57;;;0.50;;
66521;SDS011;53349;53.538;8.584;2024-03-29T07:35:19;4.40;;;0.50;;
66521;SDS011;53349;53.538;8.584;2024-03-29T07:37:44;2.95;;;0.55;;
66521;SDS011;53349;53.538;8.584;2024-03-29T07:40:10;3.90;;;0.65;;
66521;SDS011;53349;53.538;8.584;2024-03-29T07:42:35;4.73;;;0.60;;
66521;SDS011;53349;53.538;8.584;2024-03-29T07:45:01;4.90;;;1.23;;
66521;SDS011;53349;53.538;8.584;2024-03-29T07:47:26;3.00;;;0.63;;
66521;SDS011;53349;53.538;8.584;2024-03-29T07:49:51;3.95;;;0.40;;
66521;SDS011;53349;53.538;8.584;2024-03-29T07:52:17;4.07;;;0.60;;
66521;SDS011;53349;53.538;8.584;2024-03-29T07:54:42;3.30;;;0.60;;
66521;SDS011;53349;53.538;8.584;2024-03-29T07:57:08;1.80;;;0.40;;
66521;SDS011;53349;53.538;8.584;2024-03-29T07:59:33;4.43;;;0.50;;
66521;SDS011;53349;53.538;8.584;2024-03-29T08:01:59;1.83;;;0.50;;
66521;SDS011;53349;53.538;8.584;2024-03-29T08:04:24;3.13;;;0.50;;
66521;SDS011;53349;53.538;8.584;2024-03-29T08:06:51;2.43;;;0.47;;
66521;SDS011;53349;53.538;8.584;2024-03-29T08:09:17;3.22;;;0.50;;
66521;SDS011;53349;53.538;8.584;2024-03-29T08:11:42;2.13;;;0.60;;
66521;SDS011;53349;53.538;8.584;2024-03-29T08:14:08;2.17;;;0.47;;
66521;SDS011;53349;53.538;8.584;2024-03-29T08:16:33;2.63;;;0.50;;
66521;SDS011;53349;53.538;8.584;2024-03-29T08:18:58;1.53;;;0.63;;
66521;SDS011;53349;53.538;8.584;2024-03-29T08:21:24;2.03;;;0.40;;
66521;SDS011;53349;53.538;8.584;2024-03-29T08:23:49;3.40;;;0.40;;
66521;SDS011;53349;53.538;8.584;2024-03-29T08:26:14;3.90;;;0.47;;
66521;SDS011;53349;53.538;8.584;2024-03-29T08:28:40;3.33;;;0.50;;
66521;SDS011;53349;53.538;8.584;2024-03-29T08:31:05;2.63;;;0.53;;
66521;SDS011;53349;53.538;8.584;2024-03-29T08:33:32;2.00;;;0.40;;
66521;SDS011;53349;53.538;8.584;2024-03-29T08:35:57;3.73;;;0.40;;
66521;SDS011;53349;53.538;8.584;2024-03-29T08:38:23;3.70;;;0.50;;
66521;SDS011;53349;53.538;8.584;2024-03-29T08:40:49;3.53;;;0.50;;
66521;SDS011;53349;53.538;8.584;2024-03-29T08:43:14;2.80;;;0.60;;
66521;SDS011;53349;53.538;8.584;2024-03-29T08:45:40;3.40;;;0.50;;
66521;SDS011;53349;53.538;8.584;2024-03-29T08:48:06;3.20;;;0.60;;
66521;SDS011;53349;53.538;8.584;2024-03-29T08:50:32;2.13;;;0.40;;
66521;SDS011;53349;53.538;8.584;2024-03-29T08:52:57;1.58;;;0.30;;
66521;SDS011;53349;53.538;8.584;2024-03-29T08:55:23;4.10;;;0.40;;
66521;SDS011;53349;53.538;8.584;2024-03-29T08:57:48;1.87;;;0.50;;
66521;SDS011;53349;53.538;8.584;2024-03-29T09:00:14;2.83;;;0.80;;
66521;SDS011;53349;53.538;8.584;2024-03-29T09:02:39;2.95;;;0.60;;
66521;SDS011;53349;53.538;8.584;2024-03-29T09:05:05;2.75;;;0.50;;
66521;SDS011;53349;53.538;8.584;2024-03-29T09:07:31;3.40;;;0.53;;
66521;SDS011;53349;53.538;8.584;2024-03-29T09:09:56;2.78;;;0.47;;
66521;SDS011;53349;53.538;8.584;2024-03-29T09:12:21;3.75;;;0.50;;
66521;SDS011;53349;53.538;8.584;2024-03-29T09:14:47;1.70;;;0.30;;
66521;SDS011;53349;53.538;8.584;2024-03-29T09:17:12;3.57;;;0.40;;
66521;SDS011;53349;53.538;8.584;2024-03-29T09:19:38;2.33;;;0.40;;
66521;SDS011;53349;53.538;8.584;2024-03-29T09:22:03;1.70;;;0.40;;
66521;SDS011;53349;53.538;8.584;2024-03-29T09:24:29;3.88;;;0.50;;
66521;SDS011;53349;53.538;8.584;2024-03-29T09:26:54;3.60;;;0.70;;
66521;SDS011;53349;53.538;8.584;2024-03-29T09:29:19;2.43;;;0.67;;
66521;SDS011;53349;53.538;8.584;2024-03-29T09:31:45;3.30;;;0.73;;
66521;SDS011;53349;53.538;8.584;2024-03-29T09:34:10;2.97;;;0.57;;
66521;SDS011;53349;53.538;8.584;2024-03-29T09:36:36;2.95;;;0.70;;
66521;SDS011;53349;53.538;8.584;2024-03-29T09:39:01;3.63;;;0.60;;
66521;SDS011;53349;53.538;8.584;2024-03-29T09:41:27;4.10;;;1.03;;
66521;SDS011;53349;53.538;8.584;2024-03-29T09:43:53;4.05;;;0.60;;
66521;SDS011;53349;53.538;8.584;2024-03-29T09:46:19;2.27;;;0.53;;
66521;SDS011;53349;53.538;8.584;2024-03-29T09:48:45;5.20;;;0.52;;
66521;SDS011;53349;53.538;8.584;2024-03-29T09:51:11;4.03;;;0.70;;
66521;SDS011;53349;53.538;8.584;2024-03-29T09:53:37;4.17;;;0.60;;
66521;SDS011;53349;53.538;8.584;2024-03-29T09:56:03;2.80;;;0.70;;
66521;SDS011;53349;53.538;8.584;2024-03-29T09:58:29;2.95;;;0.60;;
66521;SDS011;53349;53.538;8.584;2024-03-29T10:00:55;2.97;;;0.50;;
66521;SDS011;53349;53.538;8.584;2024-03-29T10:03:21;3.23;;;0.90;;
66521;SDS011;53349;53.538;8.584;2024-03-29T10:05:49;2.45;;;0.93;;
66521;SDS011;53349;53.538;8.584;2024-03-29T10:08:15;2.90;;;0.70;;
66521;SDS011;53349;53.538;8.584;2024-03-29T10:10:41;2.47;;;0.80;;
66521;SDS011;53349;53.538;8.584;2024-03-29T10:13:06;4.43;;;0.90;;
66521;SDS011;53349;53.538;8.584;2024-03-29T10:15:32;2.50;;;0.80;;
66521;SDS011;53349;53.538;8.584;2024-03-29T10:17:57;4.13;;;0.90;;
66521;SDS011;53349;53.538;8.584;2024-03-29T10:20:23;2.67;;;0.83;;
66521;SDS011;53349;53.538;8.584;2024-03-29T10:22:48;4.07;;;1.07;;
66521;SDS011;53349;53.538;8.584;2024-03-29T10:25:14;6.37;;;1.20;;
66521;SDS011;53349;53.538;8.584;2024-03-29T10:27:39;3.35;;;0.77;;
66521;SDS011;53349;53.538;8.584;2024-03-29T10:30:06;4.17;;;1.07;;
66521;SDS011;53349;53.538;8.584;2024-03-29T10:32:32;2.53;;;0.80;;
66521;SDS011;53349;53.538;8.584;2024-03-29T10:34:57;4.60;;;1.13;;
66521;SDS011;53349;53.538;8.584;2024-03-29T10:37:24;3.20;;;1.00;;
66521;SDS011;53349;53.538;8.584;2024-03-29T10:39:50;4.10;;;1.25;;
66521;SDS011;53349;53.538;8.584;2024-03-29T10:42:15;4.10;;;1.70;;
66521;SDS011;53349;53.538;8.584;2024-03-29T10:44:41;3.60;;;1.30;;
66521;SDS011;53349;53.538;8.584;2024-03-29T10:47:07;4.40;;;2.17;;
66521;SDS011;53349;53.538;8.584;2024-03-29T10:49:33;8.80;;;2.17;;
66521;SDS011;53349;53.538;8.584;2024-03-29T10:52:00;3.47;;;1.57;;
66521;SDS011;53349;53.538;8.584;2024-03-29T10:54:25;4.35;;;1.52;;
66521;SDS011;53349;53.538;8.584;2024-03-29T10:57:02;6.10;;;1.67;;
66521;SDS011;53349;53.538;8.584;2024-03-29T10:59:42;4.80;;;1.40;;
66521;SDS011;53349;53.538;8.584;2024-03-29T11:02:13;4.22;;;1.50;;
66521;SDS011;53349;53.538;8.584;2024-03-29T11:04:49;3.73;;;1.60;;
66521;SDS011;53349;53.538;8.584;2024-03-29T11:07:19;3.70;;;1.10;;
66521;SDS011;53349;53.538;8.584;2024-03-29T11:09:45;4.28;;;1.00;;
66521;SDS011;53349;53.538;8.584;2024-03-29T11:12:17;4.30;;;1.10;;
66521;SDS011;53349;53.538;8.584;2024-03-29T11:14:48;4.32;;;1.17;;
66521;SDS011;53349;53.538;8.584;2024-03-29T11:17:22;4.77;;;1.17;;
66521;SDS011;53349;53.538;8.584;2024-03-29T11:19:48;4.07;;;1.30;;
66521;SDS011;53349;53.538;8.584;2024-03-29T11:22:14;3.10;;;0.90;;
66521;SDS011;53349;53.538;8.584;2024-03-29T11:24:39;4.72;;;0.88;;
66521;SDS011;53349;53.538;8.584;2024-03-29T11:27:09;5.97;;;1.70;;
66521;SDS011;53349;53.538;8.584;2024-03-29T11:29:35;3.78;;;1.30;;
66521;SDS011;53349;53.538;8.584;2024-03-29T11:32:00;2.27;;;1.10;;
66521;SDS011;53349;53.538;8.584;2024-03-29T11:34:25;5.53;;;1.20;;
66521;SDS011;53349;53.538;8.584;2024-03-29T11:37:05;3.50;;;1.10;;
66521;SDS011;53349;53.538;8.584;2024-03-29T11:39:33;3.45;;;0.98;;
66521;SDS011;53349;53.538;8.584;2024-03-29T11:42:00;3.17;;;0.98;;
66521;SDS011;53349;53.538;8.584;2024-03-29T11:44:26;4.70;;;1.20;;
66521;SDS011;53349;53.538;8.584;2024-03-29T11:46:52;7.15;;;1.80;;
66521;SDS011;53349;53.538;8.584;2024-03-29T11:49:22;4.15;;;1.90;;
66521;SDS011;53349;53.538;8.584;2024-03-29T11:51:48;4.32;;;1.63;;
66521;SDS011;53349;53.538;8.584;2024-03-29T11:54:13;2.80;;;1.27;;
66521;SDS011;53349;53.538;8.584;2024-03-29T11:56:39;4.15;;;1.30;;
66521;SDS011;53349;53.538;8.584;2024-03-29T11:59:04;3.83;;;1.30;;
66521;SDS011;53349;53.538;8.584;2024-03-29T12:01:30;6.10;;;2.43;;
66521;SDS011;53349;53.538;8.584;2024-03-29T12:03:56;4.75;;;2.22;;
66521;SDS011;53349;53.538;8.584;2024-03-29T12:06:21;4.87;;;2.20;;
66521;SDS011;53349;53.538;8.584;2024-03-29T12:08:47;5.03;;;1.60;;
66521;SDS011;53349;53.538;8.584;2024-03-29T12:11:13;4.37;;;1.37;;
66521;SDS011;53349;53.538;8.584;2024-03-29T12:13:38;4.55;;;1.40;;
66521;SDS011;53349;53.538;8.584;2024-03-29T12:16:04;3.77;;;1.50;;
66521;SDS011;53349;53.538;8.584;2024-03-29T12:18:30;4.38;;;1.60;;
66521;SDS011;53349;53.538;8.584;2024-03-29T12:20:55;3.47;;;1.70;;
66521;SDS011;53349;53.538;8.584;2024-03-29T12:23:21;3.57;;;1.70;;
66521;SDS011;53349;53.538;8.584;2024-03-29T12:25:47;4.83;;;1.90;;
66521;SDS011;53349;53.538;8.584;2024-03-29T12:28:14;4.20;;;1.90;;
66521;SDS011;53349;53.538;8.584;2024-03-29T12:30:41;3.90;;;1.90;;
66521;SDS011;53349;53.538;8.584;2024-03-29T12:33:08;4.15;;;1.90;;
66521;SDS011;53349;53.538;8.584;2024-03-29T12:35:36;5.40;;;1.70;;
66521;SDS011;53349;53.538;8.584;2024-03-29T12:38:03;4.60;;;1.97;;
66521;SDS011;53349;53.538;8.584;2024-03-29T12:40:30;5.15;;;2.00;;
66521;SDS011;53349;53.538;8.584;2024-03-29T12:42:57;5.18;;;2.20;;
66521;SDS011;53349;53.538;8.584;2024-03-29T12:45:22;4.80;;;2.87;;
66521;SDS011;53349;53.538;8.584;2024-03-29T12:47:49;5.68;;;2.72;;
66521;SDS011;53349;53.538;8.584;2024-03-29T12:50:25;8.40;;;2.80;;
66521;SDS011;53349;53.538;8.584;2024-03-29T12:52:55;4.47;;;2.40;;
66521;SDS011;53349;53.538;8.584;2024-03-29T12:55:23;3.80;;;2.10;;
66521;SDS011;53349;53.538;8.584;2024-03-29T12:57:49;5.18;;;2.33;;
66521;SDS011;53349;53.538;8.584;2024-03-29T13:00:15;6.68;;;2.10;;
66521;SDS011;53349;53.538;8.584;2024-03-29T13:02:41;5.07;;;2.00;;
66521;SDS011;53349;53.538;8.584;2024-03-29T13:05:06;4.37;;;1.93;;
66521;SDS011;53349;53.538;8.584;2024-03-29T13:07:32;4.95;;;1.80;;
66521;SDS011;53349;53.538;8.584;2024-03-29T13:09:59;4.73;;;1.90;;
66521;SDS011;53349;53.538;8.584;2024-03-29T13:12:24;4.88;;;2.00;;
66521;SDS011;53349;53.538;8.584;2024-03-29T13:14:50;3.83;;;1.80;;
66521;SDS011;53349;53.538;8.584;2024-03-29T13:17:15;4.60;;;1.80;;
66521;SDS011;53349;53.538;8.584;2024-03-29T13:19:40;3.83;;;1.80;;
66521;SDS011;53349;53.538;8.584;2024-03-29T13:22:06;5.40;;;1.80;;
66521;SDS011;53349;53.538;8.584;2024-03-29T13:24:31;3.42;;;1.88;;
66521;SDS011;53349;53.538;8.584;2024-03-29T13:26:57;4.70;;;2.03;;
66521;SDS011;53349;53.538;8.584;2024-03-29T13:29:23;5.00;;;1.95;;
66521;SDS011;53349;53.538;8.584;2024-03-29T13:31:48;3.95;;;1.75;;
66521;SDS011;53349;53.538;8.584;2024-03-29T13:34:13;3.63;;;1.60;;
66521;SDS011;53349;53.538;8.584;2024-03-29T13:36:39;4.37;;;2.13;;
66521;SDS011;53349;53.538;8.584;2024-03-29T13:39:07;3.90;;;1.77;;
66521;SDS011;53349;53.538;8.584;2024-03-29T13:41:33;3.75;;;1.67;;
66521;SDS011;53349;53.538;8.584;2024-03-29T13:43:58;4.35;;;1.50;;
66521;SDS011;53349;53.538;8.584;2024-03-29T13:46:24;3.50;;;1.50;;
66521;SDS011;53349;53.538;8.584;2024-03-29T13:48:49;4.05;;;1.70;;
66521;SDS011;53349;53.538;8.584;2024-03-29T13:51:15;4.80;;;1.73;;
66521;SDS011;53349;53.538;8.584;2024-03-29T13:53:41;4.87;;;1.57;;
66521;SDS011;53349;53.538;8.584;2024-03-29T13:56:07;4.68;;;1.75;;
66521;SDS011;53349;53.538;8.584;2024-03-29T13:58:32;4.57;;;1.47;;
66521;SDS011;53349;53.538;8.584;2024-03-29T14:00:58;3.17;;;1.30;;
66521;SDS011;53349;53.538;8.584;2024-03-29T14:03:23;5.27;;;1.70;;
66521;SDS011;53349;53.538;8.584;2024-03-29T14:05:50;3.92;;;1.40;;
66521;SDS011;53349;53.538;8.584;2024-03-29T14:08:15;2.95;;;1.35;;
66521;SDS011;53349;53.538;8.584;2024-03-29T14:10:41;3.70;;;1.80;;
66521;SDS011;53349;53.538;8.584;2024-03-29T14:13:06;3.80;;;1.73;;
66521;SDS011;53349;53.538;8.584;2024-03-29T14:15:31;3.23;;;1.37;;
66521;SDS011;53349;53.538;8.584;2024-03-29T14:17:57;4.00;;;1.30;;
66521;SDS011;53349;53.538;8.584;2024-03-29T14:20:22;3.30;;;1.37;;
66521;SDS011;53349;53.538;8.584;2024-03-29T14:22:47;4.17;;;1.47;;
66521;SDS011;53349;53.538;8.584;2024-03-29T14:25:13;6.63;;;1.70;;
66521;SDS011;53349;53.538;8.584;2024-03-29T14:27:38;5.07;;;1.38;;
66521;SDS011;53349;53.538;8.584;2024-03-29T14:30:04;4.00;;;1.60;;
66521;SDS011;53349;53.538;8.584;2024-03-29T14:32:29;3.90;;;1.70;;
66521;SDS011;53349;53.538;8.584;2024-03-29T14:34:55;9.68;;;1.92;;
66521;SDS011;53349;53.538;8.584;2024-03-29T14:37:20;3.80;;;1.65;;
66521;SDS011;53349;53.538;8.584;2024-03-29T14:39:45;5.30;;;1.90;;